Time;durP1;ratioP1;P1;durP2;ratioP2;P2;SDS_P1;SDS_P2;PMS_P1;PMS_P2;Temp;Humidity;BMP_temperature;BMP_pressure;BME280_temperature;BME280_humidity;BME280_pressure;Samples;Min_cycle;Max_cycle;Signal;HPM_P1;HPM_P2
2023/07/10 00:00:04;;;;;;;19.33;11.10;;;;;;;;;;4950651;29;20234;-60
2023/07/10 00:02:29;;;;;;;16.17;11.40;;;;;;;;;;4950750;29;20226;-60
2023/07/10 00:04:54;;;;;;;17.15;11.30;;;;;;;;;;4951023;29;20750;-59
2023/07/10 00:07:20;;;;;;;19.30;11.45;;;;;;;;;;4950757;29;20249;-60
2023/07/10 00:09:45;;;;;;;16.05;10.32;;;;;;;;;;4946118;28;20202;-59
2023/07/10 00:12:12;;;;;;;16.13;11.63;;;;;;;;;;4953975;28;20217;-59
2023/07/10 00:14:37;;;;;;;18.23;11.10;;;;;;;;;;4937064;29;20286;-59
2023/07/10 00:17:02;;;;;;;19.48;11.65;;;;;;;;;;4953724;29;20210;-60
2023/07/10 00:19:28;;;;;;;18.75;11.55;;;;;;;;;;4954523;29;20284;-60
2023/07/10 00:21:53;;;;;;;15.30;11.38;;;;;;;;;;4953874;29;20586;-60
2023/07/10 00:24:18;;;;;;;20.38;11.07;;;;;;;;;;4953918;29;20297;-60
2023/07/10 00:26:44;;;;;;;17.05;11.10;;;;;;;;;;4954469;29;20210;-59
2023/07/10 00:29:15;;;;;;;17.98;11.27;;;;;;;;;;4952869;29;20684;-60
2023/07/10 00:31:40;;;;;;;18.38;12.00;;;;;;;;;;4954540;29;20233;-59
2023/07/10 00:34:07;;;;;;;20.45;11.40;;;;;;;;;;4953993;29;20222;-59
2023/07/10 00:36:33;;;;;;;19.42;11.85;;;;;;;;;;4936503;29;20210;-59
2023/07/10 00:39:00;;;;;;;19.65;11.35;;;;;;;;;;4918158;29;20207;-59
2023/07/10 00:41:26;;;;;;;20.13;11.30;;;;;;;;;;4933285;29;20579;-60
2023/07/10 00:43:53;;;;;;;16.17;11.23;;;;;;;;;;4934019;29;20229;-59
2023/07/10 00:46:21;;;;;;;18.33;11.00;;;;;;;;;;4933180;29;20566;-60
2023/07/10 00:48:54;;;;;;;18.33;11.35;;;;;;;;;;4933746;29;20218;-59
2023/07/10 00:51:22;;;;;;;16.67;11.13;;;;;;;;;;4932292;29;20215;-60
2023/07/10 00:53:47;;;;;;;19.85;11.27;;;;;;;;;;4933766;29;20230;-60
2023/07/10 00:56:14;;;;;;;19.95;11.32;;;;;;;;;;4934088;29;20294;-59
2023/07/10 00:58:40;;;;;;;15.23;11.07;;;;;;;;;;4932476;29;20226;-60
2023/07/10 01:01:07;;;;;;;15.98;11.00;;;;;;;;;;4933957;29;20227;-60
2023/07/10 01:03:32;;;;;;;20.65;10.63;;;;;;;;;;4934904;29;20266;-60
2023/07/10 01:05:59;;;;;;;17.40;10.60;;;;;;;;;;4945371;28;20222;-60
2023/07/10 01:08:24;;;;;;;18.00;11.25;;;;;;;;;;4951331;28;20298;-60
2023/07/10 01:10:51;;;;;;;21.17;10.57;;;;;;;;;;4953184;29;20297;-59
2023/07/10 01:13:16;;;;;;;17.33;9.68;;;;;;;;;;4952365;28;20293;-60
2023/07/10 01:15:41;;;;;;;17.92;10.75;;;;;;;;;;4953308;28;20289;-60
2023/07/10 01:18:10;;;;;;;19.58;11.10;;;;;;;;;;4952263;28;20230;-60
2023/07/10 01:20:38;;;;;;;20.33;12.68;;;;;;;;;;4952284;28;20227;-59
2023/07/10 01:23:03;;;;;;;18.38;10.52;;;;;;;;;;4935730;28;20674;-60
2023/07/10 01:25:29;;;;;;;15.32;10.68;;;;;;;;;;4935361;29;20289;-60
2023/07/10 01:27:54;;;;;;;18.38;10.30;;;;;;;;;;4952866;28;20215;-60
2023/07/10 01:30:22;;;;;;;15.63;9.63;;;;;;;;;;4952696;28;20229;-59
2023/07/10 01:32:48;;;;;;;17.65;10.13;;;;;;;;;;4952762;28;20289;-59
2023/07/10 01:37:41;;;;;;;17.52;9.30;;;;;;;;;;4952713;28;20219;-59
2023/07/10 01:40:07;;;;;;;16.58;9.50;;;;;;;;;;4951797;29;20325;-59
2023/07/10 01:42:33;;;;;;;17.90;9.43;;;;;;;;;;4935503;29;20272;-59
2023/07/10 01:44:58;;;;;;;15.57;8.95;;;;;;;;;;4952634;29;20223;-59
2023/07/10 01:47:24;;;;;;;13.15;9.05;;;;;;;;;;4951743;29;20662;-60
2023/07/10 01:49:52;;;;;;;13.05;8.73;;;;;;;;;;4952558;29;20248;-60
2023/07/10 01:52:17;;;;;;;15.98;8.95;;;;;;;;;;4935148;29;20254;-59
2023/07/10 01:54:43;;;;;;;15.10;8.88;;;;;;;;;;4951894;29;20706;-60
2023/07/10 01:57:08;;;;;;;14.25;9.05;;;;;;;;;;4941854;28;20902;-60
2023/07/10 01:59:34;;;;;;;15.77;8.30;;;;;;;;;;4944196;29;20246;-60
2023/07/10 02:01:59;;;;;;;11.18;7.80;;;;;;;;;;4943813;29;20313;-60
2023/07/10 02:04:24;;;;;;;11.65;8.00;;;;;;;;;;4939839;29;20300;-60
2023/07/10 02:06:50;;;;;;;16.02;8.48;;;;;;;;;;4936416;29;20249;-60
2023/07/10 02:09:15;;;;;;;14.48;8.95;;;;;;;;;;4935937;29;20449;-60
2023/07/10 02:11:40;;;;;;;19.38;9.10;;;;;;;;;;4940993;29;20215;-60
2023/07/10 02:14:06;;;;;;;17.45;9.43;;;;;;;;;;4916354;29;20237;-60
2023/07/10 02:16:31;;;;;;;15.68;8.50;;;;;;;;;;4944023;29;20214;-60
2023/07/10 02:18:57;;;;;;;16.17;8.80;;;;;;;;;;4944604;29;21067;-59
2023/07/10 02:21:22;;;;;;;15.45;9.35;;;;;;;;;;4943747;29;20320;-60
2023/07/10 02:23:47;;;;;;;12.95;8.35;;;;;;;;;;4944690;29;20708;-60
2023/07/10 02:26:13;;;;;;;16.10;8.55;;;;;;;;;;4942336;29;20775;-60
2023/07/10 02:28:39;;;;;;;15.77;8.65;;;;;;;;;;4935678;28;20226;-60
2023/07/10 02:31:04;;;;;;;13.73;8.68;;;;;;;;;;4935306;29;20862;-60
2023/07/10 02:33:30;;;;;;;14.27;8.65;;;;;;;;;;4938596;28;20217;-60
2023/07/10 02:35:55;;;;;;;14.07;9.23;;;;;;;;;;4944172;29;20249;-60
2023/07/10 02:38:20;;;;;;;14.65;8.35;;;;;;;;;;4943560;29;20673;-60
2023/07/10 02:40:46;;;;;;;12.60;7.53;;;;;;;;;;4944069;29;20254;-60
2023/07/10 02:43:11;;;;;;;14.63;8.65;;;;;;;;;;4942790;29;20210;-61
2023/07/10 02:45:36;;;;;;;15.77;8.75;;;;;;;;;;4943849;29;20704;-60
2023/07/10 02:48:01;;;;;;;14.30;8.93;;;;;;;;;;4943503;29;20253;-60
2023/07/10 02:50:27;;;;;;;17.27;9.18;;;;;;;;;;4936230;29;21092;-60
2023/07/10 02:52:52;;;;;;;14.52;8.88;;;;;;;;;;4935626;29;20218;-60
2023/07/10 02:55:17;;;;;;;13.93;9.85;;;;;;;;;;4935527;29;20245;-60
2023/07/10 02:57:43;;;;;;;15.95;9.35;;;;;;;;;;4942485;29;20329;-60
2023/07/10 03:00:08;;;;;;;17.05;9.32;;;;;;;;;;4925600;29;20234;-60
2023/07/10 03:02:34;;;;;;;15.05;10.18;;;;;;;;;;4944329;29;20384;-59
2023/07/10 03:04:59;;;;;;;14.13;9.45;;;;;;;;;;4942983;29;20729;-60
2023/07/10 03:07:24;;;;;;;15.77;9.57;;;;;;;;;;4926448;29;20222;-60
2023/07/10 03:09:50;;;;;;;18.15;9.98;;;;;;;;;;4943668;29;20215;-60
2023/07/10 03:12:15;;;;;;;15.57;9.93;;;;;;;;;;4938577;29;20261;-60
2023/07/10 03:14:40;;;;;;;15.50;10.50;;;;;;;;;;4935345;29;20233;-60
2023/07/10 03:17:05;;;;;;;14.10;9.75;;;;;;;;;;4934376;29;20230;-60
2023/07/10 03:19:31;;;;;;;16.88;10.00;;;;;;;;;;4939790;29;20323;-60
2023/07/10 03:21:57;;;;;;;14.98;10.40;;;;;;;;;;4943090;29;20589;-60
2023/07/10 03:24:22;;;;;;;14.63;8.82;;;;;;;;;;4942952;29;20221;-60
2023/07/10 03:26:47;;;;;;;15.35;9.10;;;;;;;;;;4943473;29;20202;-60
2023/07/10 03:29:13;;;;;;;14.68;8.63;;;;;;;;;;4942838;29;20250;-60
2023/07/10 03:31:38;;;;;;;12.65;8.50;;;;;;;;;;4943550;29;20634;-60
2023/07/10 03:34:04;;;;;;;14.75;8.43;;;;;;;;;;4940579;29;20700;-60
2023/07/10 03:36:29;;;;;;;12.38;8.30;;;;;;;;;;4935590;29;20211;-60
2023/07/10 03:38:55;;;;;;;13.30;8.10;;;;;;;;;;4934974;29;20313;-60
2023/07/10 03:41:20;;;;;;;13.80;7.82;;;;;;;;;;4937302;29;20237;-60
2023/07/10 03:43:48;;;;;;;15.07;7.40;;;;;;;;;;4944043;28;20230;-60
2023/07/10 03:46:16;;;;;;;14.50;7.53;;;;;;;;;;4946248;29;20306;-60
2023/07/10 03:48:41;;;;;;;14.15;7.05;;;;;;;;;;4946673;29;20215;-60
2023/07/10 03:51:07;;;;;;;10.68;6.20;;;;;;;;;;4946675;29;20265;-60
2023/07/10 03:53:32;;;;;;;9.13;5.53;;;;;;;;;;4946465;29;20217;-60
2023/07/10 03:55:57;;;;;;;9.40;4.95;;;;;;;;;;4946839;29;20218;-60
2023/07/10 03:58:23;;;;;;;10.48;4.13;;;;;;;;;;4939113;29;20222;-60
2023/07/10 04:00:49;;;;;;;9.52;4.20;;;;;;;;;;4938307;29;20222;-60
2023/07/10 04:03:14;;;;;;;7.07;3.80;;;;;;;;;;4938764;29;20234;-60
2023/07/10 04:05:41;;;;;;;9.18;3.90;;;;;;;;;;4945798;29;20281;-60
2023/07/10 04:08:06;;;;;;;9.85;3.45;;;;;;;;;;4946309;29;20214;-60
2023/07/10 04:10:31;;;;;;;6.00;3.25;;;;;;;;;;4946516;29;20310;-60
2023/07/10 04:12:57;;;;;;;6.95;3.10;;;;;;;;;;4947296;29;21211;-60
2023/07/10 04:15:22;;;;;;;6.15;2.90;;;;;;;;;;4945572;29;20246;-60
2023/07/10 04:17:47;;;;;;;6.65;3.08;;;;;;;;;;4946614;29;20214;-60
2023/07/10 04:20:12;;;;;;;6.38;3.03;;;;;;;;;;4941794;29;20317;-60
2023/07/10 04:22:38;;;;;;;5.28;2.90;;;;;;;;;;4938101;29;20302;-60
2023/07/10 04:25:05;;;;;;;7.43;3.00;;;;;;;;;;4938140;29;20221;-60
2023/07/10 04:27:31;;;;;;;7.72;2.90;;;;;;;;;;4943382;29;20296;-59
2023/07/10 04:29:57;;;;;;;8.32;3.20;;;;;;;;;;4946269;29;20238;-59
2023/07/10 04:32:22;;;;;;;8.23;3.07;;;;;;;;;;4945437;29;20438;-59
2023/07/10 04:34:47;;;;;;;8.07;3.25;;;;;;;;;;4946495;29;20216;-60
2023/07/10 04:37:13;;;;;;;8.18;2.95;;;;;;;;;;4945686;29;20217;-60
2023/07/10 04:39:39;;;;;;;9.30;3.53;;;;;;;;;;4943870;29;20446;-60
2023/07/10 04:42:04;;;;;;;6.20;2.85;;;;;;;;;;4943122;29;20222;-60
2023/07/10 04:44:30;;;;;;;8.88;3.38;;;;;;;;;;4938297;29;20214;-60
2023/07/10 04:46:55;;;;;;;6.72;3.17;;;;;;;;;;4938180;29;20425;-60
2023/07/10 04:49:21;;;;;;;6.68;3.08;;;;;;;;;;4939499;29;20203;-61
2023/07/10 04:51:46;;;;;;;7.38;3.20;;;;;;;;;;4946048;29;20581;-60
2023/07/10 04:54:11;;;;;;;5.88;3.47;;;;;;;;;;4945616;29;20219;-61
2023/07/10 04:56:37;;;;;;;9.82;3.42;;;;;;;;;;4945594;28;20245;-60
2023/07/10 04:59:02;;;;;;;7.13;3.40;;;;;;;;;;4945545;29;20218;-60
2023/07/10 05:01:28;;;;;;;9.40;3.67;;;;;;;;;;4945884;29;20253;-60
2023/07/10 05:03:54;;;;;;;6.03;2.90;;;;;;;;;;4944451;29;20218;-60
2023/07/10 05:06:19;;;;;;;7.30;3.35;;;;;;;;;;4936417;29;20772;-60
2023/07/10 05:08:44;;;;;;;6.97;3.17;;;;;;;;;;4938070;29;20222;-60
2023/07/10 05:11:10;;;;;;;8.10;3.15;;;;;;;;;;4936564;29;20222;-61
2023/07/10 05:13:35;;;;;;;8.95;3.70;;;;;;;;;;4947361;29;20215;-60
2023/07/10 05:16:00;;;;;;;10.05;3.47;;;;;;;;;;4953642;29;20218;-60
2023/07/10 05:18:26;;;;;;;7.40;3.28;;;;;;;;;;4952665;29;20669;-60
2023/07/10 05:20:51;;;;;;;10.00;3.63;;;;;;;;;;4951281;29;20462;-59
2023/07/10 05:23:17;;;;;;;11.45;3.70;;;;;;;;;;4952470;29;20666;-59
2023/07/10 05:25:56;;;;;;;7.28;2.88;;;;;;;;;;4952684;29;20211;-60
2023/07/10 05:28:21;;;;;;;8.45;3.28;;;;;;;;;;4951290;29;20238;-60
2023/07/10 05:30:46;;;;;;;8.07;3.67;;;;;;;;;;4952902;29;20226;-59
2023/07/10 05:33:12;;;;;;;8.43;3.45;;;;;;;;;;4951924;29;20206;-60
2023/07/10 05:35:37;;;;;;;8.80;3.47;;;;;;;;;;4952488;29;20217;-59
2023/07/10 05:38:02;;;;;;;6.95;3.30;;;;;;;;;;4952296;29;20233;-59
2023/07/10 05:40:27;;;;;;;8.55;3.35;;;;;;;;;;4952193;29;20674;-59
2023/07/10 05:42:53;;;;;;;8.45;3.28;;;;;;;;;;4952421;29;20237;-59
2023/07/10 05:45:18;;;;;;;8.85;3.20;;;;;;;;;;4952326;29;20218;-59
2023/07/10 05:47:43;;;;;;;7.93;3.58;;;;;;;;;;4952261;29;20280;-60
2023/07/10 05:50:09;;;;;;;10.27;3.50;;;;;;;;;;4951829;29;20576;-60
2023/07/10 05:52:34;;;;;;;9.00;3.25;;;;;;;;;;4952220;29;20272;-59
2023/07/10 05:54:59;;;;;;;11.52;3.40;;;;;;;;;;4952460;29;20293;-59
2023/07/10 05:57:24;;;;;;;7.13;3.35;;;;;;;;;;4951967;29;20250;-59
2023/07/10 05:59:50;;;;;;;9.18;3.10;;;;;;;;;;4952136;29;20210;-59
2023/07/10 06:02:15;;;;;;;6.20;2.92;;;;;;;;;;4951741;29;20238;-60
2023/07/10 06:04:40;;;;;;;7.60;2.85;;;;;;;;;;4952228;29;20207;-59
2023/07/10 06:07:06;;;;;;;7.75;3.10;;;;;;;;;;4950590;28;20658;-59
2023/07/10 06:09:31;;;;;;;8.10;3.30;;;;;;;;;;4952063;29;20211;-59
2023/07/10 06:11:57;;;;;;;8.73;2.88;;;;;;;;;;4952218;29;20210;-59
2023/07/10 06:14:22;;;;;;;9.60;2.85;;;;;;;;;;4948525;29;20300;-59
2023/07/10 06:16:48;;;;;;;9.25;2.90;;;;;;;;;;4950614;28;20214;-59
2023/07/10 06:19:13;;;;;;;7.78;2.75;;;;;;;;;;4948379;29;20647;-60
2023/07/10 06:21:38;;;;;;;9.23;2.80;;;;;;;;;;4951438;29;20216;-59
2023/07/10 06:24:04;;;;;;;9.00;2.80;;;;;;;;;;4944406;29;20581;-59
2023/07/10 06:26:29;;;;;;;7.03;2.30;;;;;;;;;;4950012;29;20298;-59
2023/07/10 06:28:55;;;;;;;8.10;2.35;;;;;;;;;;4951899;29;20227;-59
2023/07/10 06:31:21;;;;;;;8.48;2.60;;;;;;;;;;4951509;29;20599;-58
2023/07/10 06:33:46;;;;;;;7.28;2.38;;;;;;;;;;4952166;28;20624;-58
2023/07/10 06:36:12;;;;;;;8.52;2.55;;;;;;;;;;4951134;28;20214;-58
2023/07/10 06:38:37;;;;;;;9.50;2.67;;;;;;;;;;4952129;28;20783;-58
2023/07/10 06:41:05;;;;;;;8.82;2.60;;;;;;;;;;4951648;29;20651;-58
2023/07/10 06:43:31;;;;;;;10.18;2.38;;;;;;;;;;4951790;29;20306;-58
2023/07/10 06:45:56;;;;;;;6.53;2.05;;;;;;;;;;4951766;29;20298;-58
2023/07/10 06:48:21;;;;;;;5.93;2.20;;;;;;;;;;4951587;29;20229;-59
2023/07/10 06:50:53;;;;;;;6.57;2.17;;;;;;;;;;4951345;29;20261;-58
2023/07/10 06:53:19;;;;;;;6.00;2.10;;;;;;;;;;4951395;29;20300;-58
2023/07/10 06:55:44;;;;;;;6.03;1.90;;;;;;;;;;4951559;29;20222;-58
2023/07/10 06:58:12;;;;;;;6.35;2.05;;;;;;;;;;4951360;29;20309;-58
2023/07/10 07:00:37;;;;;;;6.30;2.25;;;;;;;;;;4951531;29;20626;-59
2023/07/10 07:03:02;;;;;;;6.18;1.98;;;;;;;;;;4950862;29;20219;-59
2023/07/10 07:05:27;;;;;;;7.63;2.00;;;;;;;;;;4951387;29;20635;-58
2023/07/10 07:07:53;;;;;;;6.07;1.77;;;;;;;;;;4951987;29;20218;-59
2023/07/10 07:10:18;;;;;;;5.15;1.75;;;;;;;;;;4950933;28;20218;-59
2023/07/10 07:12:43;;;;;;;7.97;2.22;;;;;;;;;;4951879;28;20211;-59
2023/07/10 07:15:09;;;;;;;7.47;2.13;;;;;;;;;;4951023;28;20293;-59
2023/07/10 07:17:35;;;;;;;7.00;1.88;;;;;;;;;;4951464;28;20301;-59
2023/07/10 07:20:00;;;;;;;7.88;2.55;;;;;;;;;;4955688;29;20313;-59
2023/07/10 07:22:26;;;;;;;5.82;2.00;;;;;;;;;;4955012;29;20218;-59
2023/07/10 07:24:51;;;;;;;6.82;1.80;;;;;;;;;;4954976;29;20297;-59
2023/07/10 07:27:17;;;;;;;6.05;1.67;;;;;;;;;;4955000;28;20221;-59
2023/07/10 07:29:42;;;;;;;8.48;2.05;;;;;;;;;;4955444;29;20299;-59
2023/07/10 07:32:09;;;;;;;4.57;1.63;;;;;;;;;;4954350;29;20214;-59
2023/07/10 07:34:34;;;;;;;6.18;1.70;;;;;;;;;;4954789;29;20226;-59
2023/07/10 07:36:59;;;;;;;6.25;1.70;;;;;;;;;;4955042;29;20607;-59
2023/07/10 07:39:30;;;;;;;7.68;2.13;;;;;;;;;;4954397;28;20378;-59
2023/07/10 07:41:56;;;;;;;7.30;2.13;;;;;;;;;;4955349;29;20297;-59
2023/07/10 07:44:21;;;;;;;6.53;1.80;;;;;;;;;;4954882;29;20258;-59
2023/07/10 07:46:46;;;;;;;9.35;2.13;;;;;;;;;;4954596;29;20322;-59
2023/07/10 07:49:11;;;;;;;5.90;1.52;;;;;;;;;;4954661;29;20221;-60
2023/07/10 07:51:38;;;;;;;7.13;1.70;;;;;;;;;;4955272;29;20218;-60
2023/07/10 07:54:04;;;;;;;10.43;1.77;;;;;;;;;;4954192;29;20223;-60
2023/07/10 07:56:29;;;;;;;7.47;1.67;;;;;;;;;;4955132;29;20210;-59
2023/07/10 07:58:55;;;;;;;7.00;1.77;;;;;;;;;;4955361;29;20749;-59
2023/07/10 08:01:20;;;;;;;7.00;1.58;;;;;;;;;;4953032;29;20266;-59
2023/07/10 08:03:45;;;;;;;6.40;1.60;;;;;;;;;;4954503;29;20708;-59
2023/07/10 08:06:11;;;;;;;6.50;1.60;;;;;;;;;;4953373;29;20218;-59
2023/07/10 08:08:36;;;;;;;7.22;1.80;;;;;;;;;;4954508;29;20257;-59
2023/07/10 08:11:01;;;;;;;7.80;1.85;;;;;;;;;;4954691;28;20261;-60
2023/07/10 08:13:26;;;;;;;6.65;1.65;;;;;;;;;;4954317;28;20575;-59
2023/07/10 08:15:52;;;;;;;8.18;1.77;;;;;;;;;;4954036;28;20274;-59
2023/07/10 08:18:17;;;;;;;8.45;1.60;;;;;;;;;;4954519;28;20500;-59
2023/07/10 08:20:42;;;;;;;6.57;1.77;;;;;;;;;;4954283;28;20223;-59
2023/07/10 08:23:08;;;;;;;10.25;1.80;;;;;;;;;;4954019;28;20214;-60
2023/07/10 08:25:33;;;;;;;6.80;1.83;;;;;;;;;;4954637;28;20206;-59
2023/07/10 08:27:58;;;;;;;8.02;1.75;;;;;;;;;;4953907;28;20346;-59
2023/07/10 08:30:24;;;;;;;9.75;2.00;;;;;;;;;;4952914;28;20215;-59
2023/07/10 08:32:49;;;;;;;8.77;1.67;;;;;;;;;;4954487;29;20206;-59
2023/07/10 08:35:14;;;;;;;9.73;1.67;;;;;;;;;;4953373;29;20229;-59
2023/07/10 08:37:40;;;;;;;7.50;1.80;;;;;;;;;;4954298;28;20210;-59
2023/07/10 08:40:06;;;;;;;6.85;1.73;;;;;;;;;;4953893;28;20234;-59
2023/07/10 08:42:31;;;;;;;8.23;1.70;;;;;;;;;;4954010;28;20552;-59
2023/07/10 08:44:56;;;;;;;6.53;1.63;;;;;;;;;;4953906;28;20234;-60
2023/07/10 08:47:24;;;;;;;9.35;1.80;;;;;;;;;;4952718;28;20210;-59
2023/07/10 08:49:54;;;;;;;5.55;1.70;;;;;;;;;;4953697;28;20218;-59
2023/07/10 08:52:37;;;;;;;7.25;1.77;;;;;;;;;;4953736;28;20290;-59
2023/07/10 08:55:03;;;;;;;6.90;1.60;;;;;;;;;;4952473;28;20690;-60
2023/07/10 08:57:31;;;;;;;8.15;1.90;;;;;;;;;;4952201;29;20214;-59
2023/07/10 08:59:58;;;;;;;8.25;1.73;;;;;;;;;;4952458;29;20230;-59
2023/07/10 09:02:27;;;;;;;8.27;2.03;;;;;;;;;;4952027;28;20611;-59
2023/07/10 09:04:52;;;;;;;10.13;2.08;;;;;;;;;;4952507;29;20223;-59
2023/07/10 09:07:18;;;;;;;10.60;2.15;;;;;;;;;;4953714;28;20214;-59
2023/07/10 09:09:44;;;;;;;6.75;1.88;;;;;;;;;;4953125;28;20353;-59
2023/07/10 09:12:12;;;;;;;10.75;2.70;;;;;;;;;;4935846;29;20246;-59
2023/07/10 09:14:48;;;;;;;14.02;2.70;;;;;;;;;;4953447;29;20226;-59
2023/07/10 09:17:15;;;;;;;8.20;1.63;;;;;;;;;;4952990;28;20217;-59
2023/07/10 09:19:41;;;;;;;8.77;2.15;;;;;;;;;;4936487;29;20253;-59
2023/07/10 09:22:08;;;;;;;7.40;1.75;;;;;;;;;;4940095;29;20227;-60
2023/07/10 09:24:33;;;;;;;7.68;1.77;;;;;;;;;;4932404;29;20210;-59
2023/07/10 09:26:59;;;;;;;5.85;1.75;;;;;;;;;;4950359;28;20587;-59
2023/07/10 09:29:31;;;;;;;6.90;1.60;;;;;;;;;;4952560;29;20748;-59
2023/07/10 09:32:03;;;;;;;10.88;1.95;;;;;;;;;;4935913;29;20674;-59
2023/07/10 09:34:30;;;;;;;7.65;1.90;;;;;;;;;;4935661;29;20210;-59
2023/07/10 09:36:56;;;;;;;9.90;2.08;;;;;;;;;;4953361;29;20215;-59
2023/07/10 09:39:26;;;;;;;8.30;2.03;;;;;;;;;;4952385;28;20221;-59
2023/07/10 09:41:51;;;;;;;8.50;2.00;;;;;;;;;;4952533;28;20362;-59
2023/07/10 09:44:17;;;;;;;7.88;2.17;;;;;;;;;;4952605;28;20306;-59
2023/07/10 09:46:43;;;;;;;7.63;1.90;;;;;;;;;;4952521;28;20250;-60
2023/07/10 09:49:17;;;;;;;7.50;2.03;;;;;;;;;;4952680;28;20218;-61
2023/07/10 09:51:50;;;;;;;5.30;1.60;;;;;;;;;;4951273;29;20244;-60
2023/07/10 09:54:15;;;;;;;7.60;1.95;;;;;;;;;;4951130;28;20297;-60
2023/07/10 09:56:40;;;;;;;7.75;2.08;;;;;;;;;;4953087;28;20249;-60
2023/07/10 09:59:17;;;;;;;8.48;1.67;;;;;;;;;;4950851;28;20704;-60
2023/07/10 10:01:43;;;;;;;8.23;2.03;;;;;;;;;;4952463;29;20695;-60
2023/07/10 10:04:08;;;;;;;9.07;2.05;;;;;;;;;;4950548;28;20718;-61
2023/07/10 10:06:33;;;;;;;6.63;1.88;;;;;;;;;;4952313;29;20221;-60
2023/07/10 10:08:59;;;;;;;6.95;2.08;;;;;;;;;;4952429;29;20207;-60
2023/07/10 10:11:34;;;;;;;5.18;1.60;;;;;;;;;;4950810;28;20561;-60
2023/07/10 10:14:00;;;;;;;7.38;1.70;;;;;;;;;;4952261;28;20221;-60
2023/07/10 10:16:28;;;;;;;11.90;2.17;;;;;;;;;;4951930;28;20299;-60
2023/07/10 10:18:55;;;;;;;7.22;1.80;;;;;;;;;;4952497;29;20270;-60
2023/07/10 10:21:21;;;;;;;7.35;1.85;;;;;;;;;;4934375;29;20226;-60
2023/07/10 10:23:47;;;;;;;5.15;1.50;;;;;;;;;;4952606;29;20221;-60
2023/07/10 10:26:20;;;;;;;5.22;1.33;;;;;;;;;;4931199;29;20238;-60
2023/07/10 10:28:53;;;;;;;8.35;1.55;;;;;;;;;;4932145;29;20231;-60
2023/07/10 10:31:20;;;;;;;6.55;1.60;;;;;;;;;;4932692;29;20231;-61
2023/07/10 10:33:50;;;;;;;7.60;2.10;;;;;;;;;;4915923;29;20219;-60
2023/07/10 10:36:30;;;;;;;6.45;1.50;;;;;;;;;;4932401;29;20479;-61
2023/07/10 10:38:58;;;;;;;6.25;1.70;;;;;;;;;;4951888;28;20283;-60
2023/07/10 10:41:30;;;;;;;5.85;1.50;;;;;;;;;;4950868;28;20219;-60
2023/07/10 10:44:01;;;;;;;7.07;1.63;;;;;;;;;;4951839;28;20222;-60
2023/07/10 10:46:42;;;;;;;8.15;1.70;;;;;;;;;;4952172;28;20705;-60
2023/07/10 10:49:21;;;;;;;8.10;1.95;;;;;;;;;;4951117;28;20220;-60
2023/07/10 10:51:51;;;;;;;4.20;1.30;;;;;;;;;;4952140;28;20206;-60
2023/07/10 10:54:21;;;;;;;7.38;1.67;;;;;;;;;;4951381;28;20289;-60
2023/07/10 10:56:52;;;;;;;8.75;1.67;;;;;;;;;;4951127;28;20238;-60
2023/07/10 10:59:21;;;;;;;6.63;1.33;;;;;;;;;;4951457;28;20225;-60
2023/07/10 11:01:55;;;;;;;5.13;1.40;;;;;;;;;;4950740;29;20233;-60
2023/07/10 11:04:27;;;;;;;6.38;1.70;;;;;;;;;;4951461;28;20303;-60
2023/07/10 11:06:53;;;;;;;7.15;1.70;;;;;;;;;;4951966;28;20268;-60
2023/07/10 11:09:20;;;;;;;5.70;1.50;;;;;;;;;;4946627;29;20651;-60
2023/07/10 11:11:45;;;;;;;6.72;1.80;;;;;;;;;;4931063;29;20306;-60
2023/07/10 11:14:11;;;;;;;5.03;1.48;;;;;;;;;;4932219;29;20799;-60
2023/07/10 11:16:36;;;;;;;8.13;1.67;;;;;;;;;;4948412;28;20758;-60
2023/07/10 11:19:02;;;;;;;8.48;1.77;;;;;;;;;;4934122;28;20222;-60
2023/07/10 11:21:28;;;;;;;6.35;1.83;;;;;;;;;;4951881;28;20753;-60
2023/07/10 11:23:53;;;;;;;5.00;1.60;;;;;;;;;;4951401;28;20250;-60
2023/07/10 11:26:25;;;;;;;6.35;1.80;;;;;;;;;;4933838;28;20217;-60
2023/07/10 11:28:54;;;;;;;9.20;1.88;;;;;;;;;;4934009;29;20243;-60
2023/07/10 11:31:21;;;;;;;5.30;1.52;;;;;;;;;;4950743;28;20222;-60
2023/07/10 11:33:53;;;;;;;7.05;1.65;;;;;;;;;;4951391;28;20744;-60
2023/07/10 11:36:25;;;;;;;6.65;1.65;;;;;;;;;;4951185;28;20230;-60
2023/07/10 11:38:58;;;;;;;8.20;1.80;;;;;;;;;;4950692;29;20784;-60
2023/07/10 11:41:25;;;;;;;6.93;1.80;;;;;;;;;;4933668;29;20297;-60
2023/07/10 11:43:52;;;;;;;5.78;1.63;;;;;;;;;;4934056;29;20298;-60
2023/07/10 11:46:21;;;;;;;9.73;1.60;;;;;;;;;;4950300;29;20210;-60
2023/07/10 11:48:57;;;;;;;6.82;1.80;;;;;;;;;;4951687;29;20210;-60
2023/07/10 11:51:23;;;;;;;8.13;2.08;;;;;;;;;;4933260;29;20225;-60
2023/07/10 11:54:00;;;;;;;6.47;1.80;;;;;;;;;;4951448;29;20665;-60
2023/07/10 11:56:25;;;;;;;7.25;1.80;;;;;;;;;;4951155;29;20665;-60
2023/07/10 11:58:50;;;;;;;9.00;1.70;;;;;;;;;;4950707;29;20314;-60
2023/07/10 12:01:17;;;;;;;7.35;1.80;;;;;;;;;;4950776;29;20230;-60
2023/07/10 12:03:42;;;;;;;7.57;1.70;;;;;;;;;;4951428;29;20217;-60
2023/07/10 12:06:14;;;;;;;10.23;1.67;;;;;;;;;;4952996;28;20573;-60
2023/07/10 12:08:40;;;;;;;7.65;1.63;;;;;;;;;;4954599;29;20680;-60
2023/07/10 12:11:20;;;;;;;7.03;1.60;;;;;;;;;;4954593;28;20247;-61
2023/07/10 12:13:45;;;;;;;7.03;1.80;;;;;;;;;;4952483;29;20241;-60
2023/07/10 12:16:11;;;;;;;8.98;1.88;;;;;;;;;;4954451;28;20611;-60
2023/07/10 12:18:38;;;;;;;8.65;1.48;;;;;;;;;;4954834;29;20219;-60
2023/07/10 12:21:04;;;;;;;5.40;1.73;;;;;;;;;;4936577;29;20238;-61
2023/07/10 12:23:29;;;;;;;8.13;1.80;;;;;;;;;;4954635;29;20293;-60
2023/07/10 12:25:55;;;;;;;7.43;1.90;;;;;;;;;;4954502;28;20214;-61
2023/07/10 12:28:22;;;;;;;7.70;1.67;;;;;;;;;;4952858;29;20238;-60
2023/07/10 12:30:48;;;;;;;6.70;1.80;;;;;;;;;;4954860;29;20305;-60
2023/07/10 12:33:27;;;;;;;10.43;1.98;;;;;;;;;;4953934;29;20235;-60
2023/07/10 12:35:52;;;;;;;8.93;1.80;;;;;;;;;;4954364;29;20214;-61
2023/07/10 12:38:17;;;;;;;7.03;2.00;;;;;;;;;;4953948;28;20353;-61
2023/07/10 12:40:43;;;;;;;10.52;2.10;;;;;;;;;;4953867;28;20712;-61
2023/07/10 12:43:20;;;;;;;7.30;1.45;;;;;;;;;;4948179;28;20245;-61
2023/07/10 12:45:46;;;;;;;5.93;1.55;;;;;;;;;;4954100;28;20232;-61
2023/07/10 12:48:13;;;;;;;6.55;1.50;;;;;;;;;;4953104;29;20221;-60
2023/07/10 12:50:40;;;;;;;7.47;2.10;;;;;;;;;;4949406;28;20223;-60
2023/07/10 12:53:06;;;;;;;11.95;2.10;;;;;;;;;;4937805;28;20219;-61
2023/07/10 12:55:31;;;;;;;8.60;1.73;;;;;;;;;;4967667;28;20210;-61
2023/07/10 12:57:58;;;;;;;9.75;2.00;;;;;;;;;;4951069;29;20207;-61
2023/07/10 13:00:23;;;;;;;6.95;1.63;;;;;;;;;;4958921;28;20214;-60
2023/07/10 13:02:50;;;;;;;9.30;1.98;;;;;;;;;;4952717;28;20213;-60
2023/07/10 13:05:18;;;;;;;6.50;1.73;;;;;;;;;;4942442;28;20218;-61
2023/07/10 13:07:44;;;;;;;7.18;1.80;;;;;;;;;;4916794;28;20226;-60
2023/07/10 13:10:13;;;;;;;8.40;1.77;;;;;;;;;;4935479;28;20682;-61
2023/07/10 13:12:39;;;;;;;7.25;1.55;;;;;;;;;;4935978;28;20305;-61
2023/07/10 13:15:04;;;;;;;8.40;1.80;;;;;;;;;;4937566;28;20278;-60
2023/07/10 13:17:33;;;;;;;6.90;1.80;;;;;;;;;;4920594;29;20214;-60
2023/07/10 13:19:58;;;;;;;7.50;1.50;;;;;;;;;;4917309;29;20258;-60
2023/07/10 13:22:23;;;;;;;7.95;1.75;;;;;;;;;;4935079;28;20241;-60
2023/07/10 13:24:49;;;;;;;7.70;2.08;;;;;;;;;;4937072;28;20674;-60
2023/07/10 13:27:16;;;;;;;6.47;1.52;;;;;;;;;;4936053;28;20226;-60
2023/07/10 13:29:41;;;;;;;6.35;1.80;;;;;;;;;;4914190;29;20234;-60
2023/07/10 13:32:09;;;;;;;8.57;1.83;;;;;;;;;;4901336;29;20220;-60
2023/07/10 13:34:34;;;;;;;7.82;1.88;;;;;;;;;;4898653;29;20298;-60
2023/07/10 13:37:00;;;;;;;7.95;1.83;;;;;;;;;;4884122;29;20726;-60
2023/07/10 13:39:25;;;;;;;6.85;1.45;;;;;;;;;;4874378;29;20809;-60
2023/07/10 13:41:50;;;;;;;7.57;2.00;;;;;;;;;;4890900;29;20228;-61
2023/07/10 13:44:16;;;;;;;6.22;1.38;;;;;;;;;;4892230;29;20219;-60
2023/07/10 13:46:41;;;;;;;8.15;1.80;;;;;;;;;;4894655;29;20226;-60
2023/07/10 13:49:10;;;;;;;8.27;1.98;;;;;;;;;;4891052;29;20247;-60
2023/07/10 13:51:35;;;;;;;8.68;1.83;;;;;;;;;;4893497;29;20513;-60
2023/07/10 13:54:01;;;;;;;7.28;1.67;;;;;;;;;;4893265;29;20525;-60
2023/07/10 13:56:29;;;;;;;7.68;1.60;;;;;;;;;;4886838;29;20326;-60
2023/07/10 13:58:54;;;;;;;7.95;1.80;;;;;;;;;;4886599;29;20264;-60
2023/07/10 14:01:20;;;;;;;7.75;1.77;;;;;;;;;;4900554;29;20235;-60
2023/07/10 14:03:45;;;;;;;6.97;1.52;;;;;;;;;;4905729;29;20275;-60
2023/07/10 14:06:19;;;;;;;5.88;1.83;;;;;;;;;;4902754;29;20698;-60
2023/07/10 14:08:44;;;;;;;8.13;1.80;;;;;;;;;;4904634;29;20219;-60
2023/07/10 14:11:09;;;;;;;9.20;1.65;;;;;;;;;;4905682;29;20234;-60
2023/07/10 14:13:35;;;;;;;10.27;1.80;;;;;;;;;;4906957;29;20235;-60
2023/07/10 14:16:01;;;;;;;5.55;1.58;;;;;;;;;;4907035;29;20548;-60
2023/07/10 14:18:26;;;;;;;7.47;1.73;;;;;;;;;;4902513;29;20218;-60
2023/07/10 14:20:52;;;;;;;6.18;1.70;;;;;;;;;;4894760;29;20616;-60
2023/07/10 14:23:18;;;;;;;7.03;1.70;;;;;;;;;;4893155;29;20286;-60
2023/07/10 14:28:21;;;;;;;8.20;1.58;;;;;;;;;;4941338;28;20226;-57
2023/07/10 14:30:46;;;;;;;4.53;1.45;;;;;;;;;;4944230;28;20281;-57
2023/07/10 14:33:12;;;;;;;7.15;1.40;;;;;;;;;;4943372;28;20705;-60
2023/07/10 14:35:38;;;;;;;6.75;1.50;;;;;;;;;;4945499;28;20214;-60
2023/07/10 14:38:17;;;;;;;6.05;1.40;;;;;;;;;;4937111;28;20241;-60